sensor_id;sensor_type;location;lat;lon;timestamp;P1;durP1;ratioP1;P2;durP2;ratioP2
5416;SDS011;2731;50.754;12.990;2024-01-25T00:02:00;11.57;;;2.63;;
5416;SDS011;2731;50.754;12.990;2024-01-25T00:04:47;17.02;;;4.28;;
5416;SDS011;2731;50.754;12.990;2024-01-25T00:07:31;18.42;;;3.45;;
5416;SDS011;2731;50.754;12.990;2024-01-25T00:10:17;16.67;;;3.33;;
5416;SDS011;2731;50.754;12.990;2024-01-25T00:13:02;21.50;;;4.05;;
5416;SDS011;2731;50.754;12.990;2024-01-25T00:15:50;38.13;;;5.63;;
5416;SDS011;2731;50.754;12.990;2024-01-25T00:18:36;14.85;;;2.92;;
5416;SDS011;2731;50.754;12.990;2024-01-25T00:21:24;14.50;;;3.10;;
5416;SDS011;2731;50.754;12.990;2024-01-25T00:24:08;18.60;;;3.40;;
5416;SDS011;2731;50.754;12.990;2024-01-25T00:26:59;15.65;;;3.13;;
5416;SDS011;2731;50.754;12.990;2024-01-25T00:29:44;21.60;;;4.28;;
5416;SDS011;2731;50.754;12.990;2024-01-25T00:32:29;19.35;;;4.10;;
5416;SDS011;2731;50.754;12.990;2024-01-25T00:35:15;22.08;;;4.05;;
5416;SDS011;2731;50.754;12.990;2024-01-25T00:38:00;20.55;;;3.75;;
5416;SDS011;2731;50.754;12.990;2024-01-25T00:40:45;17.55;;;5.60;;
5416;SDS011;2731;50.754;12.990;2024-01-25T00:43:29;14.50;;;3.97;;
5416;SDS011;2731;50.754;12.990;2024-01-25T00:45:58;16.17;;;3.75;;
5416;SDS011;2731;50.754;12.990;2024-01-25T00:48:46;11.82;;;2.88;;
5416;SDS011;2731;50.754;12.990;2024-01-25T00:51:32;16.90;;;4.13;;
5416;SDS011;2731;50.754;12.990;2024-01-25T00:54:21;12.93;;;3.25;;
5416;SDS011;2731;50.754;12.990;2024-01-25T00:56:47;22.65;;;5.68;;
5416;SDS011;2731;50.754;12.990;2024-01-25T00:59:35;17.77;;;3.67;;
5416;SDS011;2731;50.754;12.990;2024-01-25T01:02:19;21.58;;;3.85;;
5416;SDS011;2731;50.754;12.990;2024-01-25T01:05:06;26.23;;;5.15;;
5416;SDS011;2731;50.754;12.990;2024-01-25T01:07:51;19.25;;;4.85;;
5416;SDS011;2731;50.754;12.990;2024-01-25T01:10:36;22.90;;;4.97;;
5416;SDS011;2731;50.754;12.990;2024-01-25T01:13:21;19.40;;;4.78;;
5416;SDS011;2731;50.754;12.990;2024-01-25T01:15:47;19.63;;;3.50;;
5416;SDS011;2731;50.754;12.990;2024-01-25T01:18:13;20.05;;;3.53;;
5416;SDS011;2731;50.754;12.990;2024-01-25T01:20:54;18.13;;;4.55;;
5416;SDS011;2731;50.754;12.990;2024-01-25T01:23:38;17.10;;;4.65;;
5416;SDS011;2731;50.754;12.990;2024-01-25T01:26:04;18.58;;;4.15;;
5416;SDS011;2731;50.754;12.990;2024-01-25T01:28:49;17.02;;;4.97;;
5416;SDS011;2731;50.754;12.990;2024-01-25T01:31:34;17.98;;;4.18;;
5416;SDS011;2731;50.754;12.990;2024-01-25T01:34:19;16.00;;;4.40;;
5416;SDS011;2731;50.754;12.990;2024-01-25T01:37:04;23.80;;;3.70;;
5416;SDS011;2731;50.754;12.990;2024-01-25T01:39:49;14.30;;;3.28;;
5416;SDS011;2731;50.754;12.990;2024-01-25T01:42:33;17.90;;;4.38;;
5416;SDS011;2731;50.754;12.990;2024-01-25T01:45:21;19.88;;;4.32;;
5416;SDS011;2731;50.754;12.990;2024-01-25T01:48:06;11.50;;;3.25;;
5416;SDS011;2731;50.754;12.990;2024-01-25T01:50:32;20.45;;;4.15;;
5416;SDS011;2731;50.754;12.990;2024-01-25T01:53:00;10.95;;;3.00;;
5416;SDS011;2731;50.754;12.990;2024-01-25T01:55:27;12.52;;;3.08;;
5416;SDS011;2731;50.754;12.990;2024-01-25T01:57:53;17.85;;;3.55;;
5416;SDS011;2731;50.754;12.990;2024-01-25T02:00:20;18.95;;;3.60;;
5416;SDS011;2731;50.754;12.990;2024-01-25T02:03:06;17.58;;;3.67;;
5416;SDS011;2731;50.754;12.990;2024-01-25T02:05:51;14.88;;;2.90;;
5416;SDS011;2731;50.754;12.990;2024-01-25T02:08:36;15.30;;;4.88;;
5416;SDS011;2731;50.754;12.990;2024-01-25T02:11:21;18.60;;;4.43;;
5416;SDS011;2731;50.754;12.990;2024-01-25T02:14:05;23.30;;;3.80;;
5416;SDS011;2731;50.754;12.990;2024-01-25T02:16:35;21.85;;;4.70;;
5416;SDS011;2731;50.754;12.990;2024-01-25T02:19:27;21.00;;;4.40;;
5416;SDS011;2731;50.754;12.990;2024-01-25T02:22:18;18.25;;;3.00;;
5416;SDS011;2731;50.754;12.990;2024-01-25T02:25:03;18.08;;;3.47;;
5416;SDS011;2731;50.754;12.990;2024-01-25T02:27:49;16.88;;;3.72;;
5416;SDS011;2731;50.754;12.990;2024-01-25T02:30:15;17.65;;;4.70;;
5416;SDS011;2731;50.754;12.990;2024-01-25T02:33:00;17.73;;;4.05;;
5416;SDS011;2731;50.754;12.990;2024-01-25T02:35:45;21.05;;;4.45;;
5416;SDS011;2731;50.754;12.990;2024-01-25T02:38:30;19.95;;;3.90;;
5416;SDS011;2731;50.754;12.990;2024-01-25T02:41:14;19.33;;;3.60;;
5416;SDS011;2731;50.754;12.990;2024-01-25T02:44:00;20.40;;;4.93;;
5416;SDS011;2731;50.754;12.990;2024-01-25T02:46:26;20.25;;;3.65;;
5416;SDS011;2731;50.754;12.990;2024-01-25T02:49:12;22.85;;;4.63;;
5416;SDS011;2731;50.754;12.990;2024-01-25T02:51:57;21.80;;;5.00;;
5416;SDS011;2731;50.754;12.990;2024-01-25T02:54:41;16.45;;;4.20;;
5416;SDS011;2731;50.754;12.990;2024-01-25T02:57:26;30.75;;;4.20;;
5416;SDS011;2731;50.754;12.990;2024-01-25T03:00:11;23.35;;;4.25;;
5416;SDS011;2731;50.754;12.990;2024-01-25T03:02:46;17.92;;;5.03;;
5416;SDS011;2731;50.754;12.990;2024-01-25T03:05:31;22.10;;;4.10;;
5416;SDS011;2731;50.754;12.990;2024-01-25T03:08:18;22.25;;;4.78;;
5416;SDS011;2731;50.754;12.990;2024-01-25T03:11:03;22.05;;;4.95;;
5416;SDS011;2731;50.754;12.990;2024-01-25T03:13:49;20.02;;;5.40;;
5416;SDS011;2731;50.754;12.990;2024-01-25T03:16:33;21.85;;;4.38;;
5416;SDS011;2731;50.754;12.990;2024-01-25T03:19:18;17.88;;;4.18;;
5416;SDS011;2731;50.754;12.990;2024-01-25T03:21:44;19.85;;;4.60;;
5416;SDS011;2731;50.754;12.990;2024-01-25T03:24:29;26.05;;;5.05;;
5416;SDS011;2731;50.754;12.990;2024-01-25T03:27:14;13.90;;;4.55;;
5416;SDS011;2731;50.754;12.990;2024-01-25T03:29:59;21.88;;;4.35;;
5416;SDS011;2731;50.754;12.990;2024-01-25T03:32:45;20.00;;;3.60;;
5416;SDS011;2731;50.754;12.990;2024-01-25T03:35:30;21.67;;;4.25;;
5416;SDS011;2731;50.754;12.990;2024-01-25T03:38:16;21.38;;;4.38;;
5416;SDS011;2731;50.754;12.990;2024-01-25T03:40:42;34.10;;;4.47;;
5416;SDS011;2731;50.754;12.990;2024-01-25T03:43:08;15.15;;;4.18;;
5416;SDS011;2731;50.754;12.990;2024-01-25T03:45:53;22.20;;;5.40;;
5416;SDS011;2731;50.754;12.990;2024-01-25T03:48:38;22.73;;;5.57;;
5416;SDS011;2731;50.754;12.990;2024-01-25T03:51:23;24.35;;;5.13;;
5416;SDS011;2731;50.754;12.990;2024-01-25T03:54:08;15.65;;;3.70;;
5416;SDS011;2731;50.754;12.990;2024-01-25T03:56:54;21.40;;;4.07;;
5416;SDS011;2731;50.754;12.990;2024-01-25T03:59:39;19.40;;;3.30;;
5416;SDS011;2731;50.754;12.990;2024-01-25T04:02:24;17.42;;;4.38;;
5416;SDS011;2731;50.754;12.990;2024-01-25T04:04:50;21.45;;;4.75;;
5416;SDS011;2731;50.754;12.990;2024-01-25T04:07:16;25.23;;;5.03;;
5416;SDS011;2731;50.754;12.990;2024-01-25T04:09:44;23.75;;;4.93;;
5416;SDS011;2731;50.754;12.990;2024-01-25T04:12:10;23.10;;;5.30;;
5416;SDS011;2731;50.754;12.990;2024-01-25T04:14:37;26.65;;;4.85;;
5416;SDS011;2731;50.754;12.990;2024-01-25T04:17:05;15.93;;;4.45;;
5416;SDS011;2731;50.754;12.990;2024-01-25T04:19:31;22.83;;;5.18;;
5416;SDS011;2731;50.754;12.990;2024-01-25T04:22:00;20.05;;;5.22;;
5416;SDS011;2731;50.754;12.990;2024-01-25T04:24:26;32.42;;;4.60;;
5416;SDS011;2731;50.754;12.990;2024-01-25T04:26:54;22.17;;;5.22;;
5416;SDS011;2731;50.754;12.990;2024-01-25T04:29:20;15.35;;;4.00;;
5416;SDS011;2731;50.754;12.990;2024-01-25T04:32:05;23.60;;;5.75;;
5416;SDS011;2731;50.754;12.990;2024-01-25T04:34:50;35.03;;;5.03;;
5416;SDS011;2731;50.754;12.990;2024-01-25T04:37:35;23.17;;;5.38;;
5416;SDS011;2731;50.754;12.990;2024-01-25T04:40:20;20.70;;;4.60;;
5416;SDS011;2731;50.754;12.990;2024-01-25T04:43:05;19.27;;;3.50;;
5416;SDS011;2731;50.754;12.990;2024-01-25T04:45:49;25.30;;;4.43;;
5416;SDS011;2731;50.754;12.990;2024-01-25T04:48:15;21.45;;;3.85;;
5416;SDS011;2731;50.754;12.990;2024-01-25T04:51:00;23.23;;;4.38;;
5416;SDS011;2731;50.754;12.990;2024-01-25T04:53:45;28.25;;;6.20;;
5416;SDS011;2731;50.754;12.990;2024-01-25T04:56:29;21.27;;;4.88;;
5416;SDS011;2731;50.754;12.990;2024-01-25T04:59:17;25.60;;;5.13;;
5416;SDS011;2731;50.754;12.990;2024-01-25T05:02:02;22.67;;;5.07;;
5416;SDS011;2731;50.754;12.990;2024-01-25T05:04:47;21.48;;;4.15;;
5416;SDS011;2731;50.754;12.990;2024-01-25T05:07:15;22.80;;;5.05;;
5416;SDS011;2731;50.754;12.990;2024-01-25T05:09:41;17.33;;;4.65;;
5416;SDS011;2731;50.754;12.990;2024-01-25T05:12:10;24.75;;;4.80;;
5416;SDS011;2731;50.754;12.990;2024-01-25T05:14:56;24.13;;;4.57;;
5416;SDS011;2731;50.754;12.990;2024-01-25T05:17:42;27.67;;;6.13;;
5416;SDS011;2731;50.754;12.990;2024-01-25T05:20:27;25.05;;;4.82;;
5416;SDS011;2731;50.754;12.990;2024-01-25T05:22:57;23.50;;;5.32;;
5416;SDS011;2731;50.754;12.990;2024-01-25T05:25:42;32.22;;;5.13;;
5416;SDS011;2731;50.754;12.990;2024-01-25T05:28:27;22.45;;;5.00;;
5416;SDS011;2731;50.754;12.990;2024-01-25T05:31:12;26.92;;;5.60;;
5416;SDS011;2731;50.754;12.990;2024-01-25T05:33:57;20.85;;;4.50;;
5416;SDS011;2731;50.754;12.990;2024-01-25T05:36:41;32.08;;;5.70;;
5416;SDS011;2731;50.754;12.990;2024-01-25T05:39:26;19.13;;;4.85;;
5416;SDS011;2731;50.754;12.990;2024-01-25T05:42:12;30.42;;;5.47;;
5416;SDS011;2731;50.754;12.990;2024-01-25T05:45:03;21.73;;;4.80;;
5416;SDS011;2731;50.754;12.990;2024-01-25T05:47:35;22.35;;;5.00;;
5416;SDS011;2731;50.754;12.990;2024-01-25T05:50:01;18.38;;;4.65;;
5416;SDS011;2731;50.754;12.990;2024-01-25T05:52:46;25.70;;;5.13;;
5416;SDS011;2731;50.754;12.990;2024-01-25T05:55:31;30.10;;;5.63;;
5416;SDS011;2731;50.754;12.990;2024-01-25T05:58:15;26.52;;;5.38;;
5416;SDS011;2731;50.754;12.990;2024-01-25T06:01:00;27.48;;;5.93;;
5416;SDS011;2731;50.754;12.990;2024-01-25T06:03:46;29.38;;;5.93;;
5416;SDS011;2731;50.754;12.990;2024-01-25T06:06:30;20.00;;;4.30;;
5416;SDS011;2731;50.754;12.990;2024-01-25T06:08:57;18.60;;;4.65;;
5416;SDS011;2731;50.754;12.990;2024-01-25T06:11:46;18.13;;;4.72;;
5416;SDS011;2731;50.754;12.990;2024-01-25T06:14:31;20.75;;;4.90;;
5416;SDS011;2731;50.754;12.990;2024-01-25T06:17:16;27.92;;;6.03;;
5416;SDS011;2731;50.754;12.990;2024-01-25T06:20:01;16.08;;;4.55;;
5416;SDS011;2731;50.754;12.990;2024-01-25T06:22:27;30.92;;;4.40;;
5416;SDS011;2731;50.754;12.990;2024-01-25T06:24:53;17.15;;;4.90;;
5416;SDS011;2731;50.754;12.990;2024-01-25T06:27:38;18.38;;;4.50;;
5416;SDS011;2731;50.754;12.990;2024-01-25T06:30:23;20.50;;;4.03;;
5416;SDS011;2731;50.754;12.990;2024-01-25T06:33:09;30.30;;;5.15;;
5416;SDS011;2731;50.754;12.990;2024-01-25T06:35:56;27.20;;;4.15;;
5416;SDS011;2731;50.754;12.990;2024-01-25T06:38:42;23.70;;;5.22;;
5416;SDS011;2731;50.754;12.990;2024-01-25T06:41:27;25.55;;;4.68;;
5416;SDS011;2731;50.754;12.990;2024-01-25T06:43:53;17.48;;;4.95;;
5416;SDS011;2731;50.754;12.990;2024-01-25T06:46:38;34.38;;;4.53;;
5416;SDS011;2731;50.754;12.990;2024-01-25T06:49:26;20.83;;;4.25;;
5416;SDS011;2731;50.754;12.990;2024-01-25T06:51:55;23.15;;;4.47;;
5416;SDS011;2731;50.754;12.990;2024-01-25T06:54:40;19.60;;;4.82;;
5416;SDS011;2731;50.754;12.990;2024-01-25T06:57:26;14.18;;;4.47;;
5416;SDS011;2731;50.754;12.990;2024-01-25T07:00:10;22.50;;;3.92;;
5416;SDS011;2731;50.754;12.990;2024-01-25T07:02:58;15.80;;;3.88;;
5416;SDS011;2731;50.754;12.990;2024-01-25T07:05:42;27.27;;;6.32;;
5416;SDS011;2731;50.754;12.990;2024-01-25T07:08:26;16.83;;;4.47;;
5416;SDS011;2731;50.754;12.990;2024-01-25T07:10:59;27.65;;;5.88;;
5416;SDS011;2731;50.754;12.990;2024-01-25T07:13:48;21.80;;;3.67;;
5416;SDS011;2731;50.754;12.990;2024-01-25T07:16:33;13.27;;;3.83;;
5416;SDS011;2731;50.754;12.990;2024-01-25T07:19:18;14.45;;;2.88;;
5416;SDS011;2731;50.754;12.990;2024-01-25T07:21:45;19.27;;;3.90;;
5416;SDS011;2731;50.754;12.990;2024-01-25T07:24:30;14.90;;;3.13;;
5416;SDS011;2731;50.754;12.990;2024-01-25T07:26:56;19.70;;;2.85;;
5416;SDS011;2731;50.754;12.990;2024-01-25T07:29:43;21.58;;;4.28;;
5416;SDS011;2731;50.754;12.990;2024-01-25T07:32:28;19.98;;;3.63;;
5416;SDS011;2731;50.754;12.990;2024-01-25T07:35:14;25.20;;;3.72;;
5416;SDS011;2731;50.754;12.990;2024-01-25T07:38:01;22.95;;;3.78;;
5416;SDS011;2731;50.754;12.990;2024-01-25T07:40:46;14.50;;;3.78;;
5416;SDS011;2731;50.754;12.990;2024-01-25T07:43:18;15.75;;;3.60;;
5416;SDS011;2731;50.754;12.990;2024-01-25T07:45:44;16.50;;;4.10;;
5416;SDS011;2731;50.754;12.990;2024-01-25T07:48:28;16.40;;;3.25;;
5416;SDS011;2731;50.754;12.990;2024-01-25T07:51:14;11.90;;;3.97;;
5416;SDS011;2731;50.754;12.990;2024-01-25T07:53:59;22.23;;;3.60;;
5416;SDS011;2731;50.754;12.990;2024-01-25T07:56:46;20.55;;;5.20;;
5416;SDS011;2731;50.754;12.990;2024-01-25T07:59:31;22.13;;;3.17;;
5416;SDS011;2731;50.754;12.990;2024-01-25T08:02:15;14.68;;;3.10;;
5416;SDS011;2731;50.754;12.990;2024-01-25T08:05:00;21.42;;;4.47;;
5416;SDS011;2731;50.754;12.990;2024-01-25T08:07:27;11.57;;;2.67;;
5416;SDS011;2731;50.754;12.990;2024-01-25T08:10:11;12.30;;;2.72;;
5416;SDS011;2731;50.754;12.990;2024-01-25T08:13:00;15.65;;;3.47;;
5416;SDS011;2731;50.754;12.990;2024-01-25T08:15:45;17.48;;;4.80;;
5416;SDS011;2731;50.754;12.990;2024-01-25T08:18:29;12.30;;;2.83;;
5416;SDS011;2731;50.754;12.990;2024-01-25T08:20:57;15.35;;;2.65;;
5416;SDS011;2731;50.754;12.990;2024-01-25T08:23:30;16.70;;;3.15;;
5416;SDS011;2731;50.754;12.990;2024-01-25T08:25:56;14.98;;;3.60;;
5416;SDS011;2731;50.754;12.990;2024-01-25T08:28:42;26.00;;;3.88;;
5416;SDS011;2731;50.754;12.990;2024-01-25T08:31:29;19.05;;;3.75;;
5416;SDS011;2731;50.754;12.990;2024-01-25T08:33:57;16.83;;;3.08;;
5416;SDS011;2731;50.754;12.990;2024-01-25T08:36:23;23.23;;;7.68;;
5416;SDS011;2731;50.754;12.990;2024-01-25T08:39:08;17.63;;;3.83;;
5416;SDS011;2731;50.754;12.990;2024-01-25T08:41:53;15.30;;;3.13;;
5416;SDS011;2731;50.754;12.990;2024-01-25T08:44:38;15.57;;;3.45;;
5416;SDS011;2731;50.754;12.990;2024-01-25T08:47:11;13.57;;;2.60;;
5416;SDS011;2731;50.754;12.990;2024-01-25T08:49:57;17.15;;;3.13;;
5416;SDS011;2731;50.754;12.990;2024-01-25T08:52:42;12.50;;;2.80;;
5416;SDS011;2731;50.754;12.990;2024-01-25T08:55:21;17.83;;;3.00;;
5416;SDS011;2731;50.754;12.990;2024-01-25T08:58:05;17.45;;;4.60;;
5416;SDS011;2731;50.754;12.990;2024-01-25T09:00:50;12.82;;;3.95;;
5416;SDS011;2731;50.754;12.990;2024-01-25T09:03:35;14.45;;;3.10;;
5416;SDS011;2731;50.754;12.990;2024-01-25T09:06:20;18.40;;;3.00;;
5416;SDS011;2731;50.754;12.990;2024-01-25T09:09:05;19.25;;;2.50;;
5416;SDS011;2731;50.754;12.990;2024-01-25T09:11:50;19.45;;;4.43;;
5416;SDS011;2731;50.754;12.990;2024-01-25T09:14:17;11.77;;;2.22;;
5416;SDS011;2731;50.754;12.990;2024-01-25T09:16:46;13.80;;;2.85;;
5416;SDS011;2731;50.754;12.990;2024-01-25T09:19:31;18.38;;;4.57;;
5416;SDS011;2731;50.754;12.990;2024-01-25T09:22:16;20.77;;;3.10;;
5416;SDS011;2731;50.754;12.990;2024-01-25T09:25:03;18.08;;;2.28;;
5416;SDS011;2731;50.754;12.990;2024-01-25T09:27:31;15.02;;;2.30;;
5416;SDS011;2731;50.754;12.990;2024-01-25T09:29:58;19.27;;;3.78;;
5416;SDS011;2731;50.754;12.990;2024-01-25T09:32:43;9.38;;;2.65;;
5416;SDS011;2731;50.754;12.990;2024-01-25T09:35:09;16.13;;;2.60;;
5416;SDS011;2731;50.754;12.990;2024-01-25T09:37:53;11.68;;;2.35;;
5416;SDS011;2731;50.754;12.990;2024-01-25T09:40:38;11.07;;;2.72;;
5416;SDS011;2731;50.754;12.990;2024-01-25T09:43:23;20.98;;;2.97;;
5416;SDS011;2731;50.754;12.990;2024-01-25T09:46:07;13.90;;;2.80;;
5416;SDS011;2731;50.754;12.990;2024-01-25T09:48:55;13.65;;;3.08;;
5416;SDS011;2731;50.754;12.990;2024-01-25T09:51:40;15.15;;;2.13;;
5416;SDS011;2731;50.754;12.990;2024-01-25T09:54:08;11.80;;;2.60;;
5416;SDS011;2731;50.754;12.990;2024-01-25T09:56:53;14.25;;;3.90;;
5416;SDS011;2731;50.754;12.990;2024-01-25T09:59:38;15.07;;;2.75;;
5416;SDS011;2731;50.754;12.990;2024-01-25T10:02:23;9.75;;;2.08;;
5416;SDS011;2731;50.754;12.990;2024-01-25T10:05:07;15.48;;;2.45;;
5416;SDS011;2731;50.754;12.990;2024-01-25T10:07:52;14.95;;;2.70;;
5416;SDS011;2731;50.754;12.990;2024-01-25T10:10:31;9.18;;;2.92;;
5416;SDS011;2731;50.754;12.990;2024-01-25T10:13:17;9.02;;;2.28;;
5416;SDS011;2731;50.754;12.990;2024-01-25T10:16:02;9.43;;;2.17;;
5416;SDS011;2731;50.754;12.990;2024-01-25T10:18:50;11.57;;;2.40;;
5416;SDS011;2731;50.754;12.990;2024-01-25T10:21:37;14.27;;;3.60;;
5416;SDS011;2731;50.754;12.990;2024-01-25T10:24:22;15.27;;;3.08;;
5416;SDS011;2731;50.754;12.990;2024-01-25T10:27:09;11.45;;;2.33;;
5416;SDS011;2731;50.754;12.990;2024-01-25T10:29:35;12.75;;;3.53;;
5416;SDS011;2731;50.754;12.990;2024-01-25T10:32:02;11.95;;;1.83;;
5416;SDS011;2731;50.754;12.990;2024-01-25T10:34:48;15.02;;;2.45;;
5416;SDS011;2731;50.754;12.990;2024-01-25T10:37:33;20.52;;;3.58;;
5416;SDS011;2731;50.754;12.990;2024-01-25T10:40:18;11.85;;;2.47;;
5416;SDS011;2731;50.754;12.990;2024-01-25T10:43:04;19.75;;;2.85;;
5416;SDS011;2731;50.754;12.990;2024-01-25T10:45:49;15.82;;;2.75;;
5416;SDS011;2731;50.754;12.990;2024-01-25T10:48:32;18.77;;;2.97;;
5416;SDS011;2731;50.754;12.990;2024-01-25T10:51:17;10.02;;;2.70;;
5416;SDS011;2731;50.754;12.990;2024-01-25T10:54:02;10.45;;;2.30;;
5416;SDS011;2731;50.754;12.990;2024-01-25T10:56:49;11.15;;;3.65;;
5416;SDS011;2731;50.754;12.990;2024-01-25T10:59:34;7.68;;;1.83;;
5416;SDS011;2731;50.754;12.990;2024-01-25T11:02:19;21.48;;;2.33;;
5416;SDS011;2731;50.754;12.990;2024-01-25T11:05:08;10.93;;;1.90;;
5416;SDS011;2731;50.754;12.990;2024-01-25T11:07:54;13.68;;;2.83;;
5416;SDS011;2731;50.754;12.990;2024-01-25T11:10:21;11.07;;;1.95;;
5416;SDS011;2731;50.754;12.990;2024-01-25T11:13:13;5.65;;;1.83;;
5416;SDS011;2731;50.754;12.990;2024-01-25T11:15:40;14.27;;;2.80;;
5416;SDS011;2731;50.754;12.990;2024-01-25T11:18:25;12.13;;;2.40;;
5416;SDS011;2731;50.754;12.990;2024-01-25T11:21:10;12.32;;;3.17;;
5416;SDS011;2731;50.754;12.990;2024-01-25T11:24:00;10.48;;;2.13;;
5416;SDS011;2731;50.754;12.990;2024-01-25T11:26:45;14.95;;;2.83;;
5416;SDS011;2731;50.754;12.990;2024-01-25T11:29:18;11.77;;;2.30;;
5416;SDS011;2731;50.754;12.990;2024-01-25T11:32:05;11.38;;;2.28;;
5416;SDS011;2731;50.754;12.990;2024-01-25T11:34:58;6.32;;;1.30;;
5416;SDS011;2731;50.754;12.990;2024-01-25T11:37:46;12.27;;;2.25;;
5416;SDS011;2731;50.754;12.990;2024-01-25T11:40:31;5.95;;;1.80;;
5416;SDS011;2731;50.754;12.990;2024-01-25T11:43:18;17.13;;;2.60;;
5416;SDS011;2731;50.754;12.990;2024-01-25T11:46:03;10.45;;;1.85;;
5416;SDS011;2731;50.754;12.990;2024-01-25T11:48:48;12.45;;;2.13;;
5416;SDS011;2731;50.754;12.990;2024-01-25T11:51:33;6.35;;;2.00;;
5416;SDS011;2731;50.754;12.990;2024-01-25T11:54:17;8.70;;;1.70;;
5416;SDS011;2731;50.754;12.990;2024-01-25T11:57:04;11.23;;;2.63;;
5416;SDS011;2731;50.754;12.990;2024-01-25T11:59:49;9.23;;;1.50;;
5416;SDS011;2731;50.754;12.990;2024-01-25T12:02:34;10.48;;;2.22;;
5416;SDS011;2731;50.754;12.990;2024-01-25T12:05:01;10.68;;;2.80;;
5416;SDS011;2731;50.754;12.990;2024-01-25T12:07:46;7.25;;;1.50;;
5416;SDS011;2731;50.754;12.990;2024-01-25T12:10:31;4.68;;;1.65;;
5416;SDS011;2731;50.754;12.990;2024-01-25T12:13:16;9.10;;;2.30;;
5416;SDS011;2731;50.754;12.990;2024-01-25T12:16:02;9.63;;;1.77;;
5416;SDS011;2731;50.754;12.990;2024-01-25T12:18:47;9.68;;;2.90;;
5416;SDS011;2731;50.754;12.990;2024-01-25T12:21:32;11.40;;;1.85;;
5416;SDS011;2731;50.754;12.990;2024-01-25T12:23:59;11.57;;;2.85;;
5416;SDS011;2731;50.754;12.990;2024-01-25T12:26:25;9.98;;;2.50;;
5416;SDS011;2731;50.754;12.990;2024-01-25T12:29:09;10.13;;;1.80;;
5416;SDS011;2731;50.754;12.990;2024-01-25T12:31:36;9.77;;;1.63;;
5416;SDS011;2731;50.754;12.990;2024-01-25T12:34:20;7.03;;;1.63;;
5416;SDS011;2731;50.754;12.990;2024-01-25T12:37:07;6.97;;;1.33;;
5416;SDS011;2731;50.754;12.990;2024-01-25T12:39:52;9.18;;;1.60;;
5416;SDS011;2731;50.754;12.990;2024-01-25T12:42:37;9.23;;;2.22;;
5416;SDS011;2731;50.754;12.990;2024-01-25T12:45:22;7.32;;;2.05;;
5416;SDS011;2731;50.754;12.990;2024-01-25T12:47:48;4.88;;;1.40;;
5416;SDS011;2731;50.754;12.990;2024-01-25T12:50:15;11.52;;;2.38;;
5416;SDS011;2731;50.754;12.990;2024-01-25T12:52:59;8.90;;;1.63;;
5416;SDS011;2731;50.754;12.990;2024-01-25T12:55:46;9.85;;;1.90;;
5416;SDS011;2731;50.754;12.990;2024-01-25T12:58:31;7.97;;;1.67;;
5416;SDS011;2731;50.754;12.990;2024-01-25T13:00:57;7.05;;;1.83;;
5416;SDS011;2731;50.754;12.990;2024-01-25T13:03:41;7.32;;;1.85;;
5416;SDS011;2731;50.754;12.990;2024-01-25T13:06:30;13.07;;;1.75;;
5416;SDS011;2731;50.754;12.990;2024-01-25T13:09:15;11.70;;;2.03;;
5416;SDS011;2731;50.754;12.990;2024-01-25T13:12:00;13.38;;;2.28;;
5416;SDS011;2731;50.754;12.990;2024-01-25T13:14:45;10.45;;;1.67;;
5416;SDS011;2731;50.754;12.990;2024-01-25T13:17:31;7.97;;;2.53;;
5416;SDS011;2731;50.754;12.990;2024-01-25T13:19:57;8.75;;;2.50;;
5416;SDS011;2731;50.754;12.990;2024-01-25T13:22:45;9.18;;;1.50;;
5416;SDS011;2731;50.754;12.990;2024-01-25T13:25:30;13.60;;;2.10;;
5416;SDS011;2731;50.754;12.990;2024-01-25T13:28:17;9.55;;;1.90;;
5416;SDS011;2731;50.754;12.990;2024-01-25T13:30:43;6.85;;;1.75;;
5416;SDS011;2731;50.754;12.990;2024-01-25T13:33:28;8.32;;;2.17;;
5416;SDS011;2731;50.754;12.990;2024-01-25T13:36:14;14.80;;;2.47;;
5416;SDS011;2731;50.754;12.990;2024-01-25T13:38:59;9.55;;;2.08;;
5416;SDS011;2731;50.754;12.990;2024-01-25T13:41:44;8.13;;;1.70;;
5416;SDS011;2731;50.754;12.990;2024-01-25T13:44:30;8.80;;;2.08;;
5416;SDS011;2731;50.754;12.990;2024-01-25T13:46:56;9.82;;;1.80;;
5416;SDS011;2731;50.754;12.990;2024-01-25T13:49:42;10.80;;;1.90;;
5416;SDS011;2731;50.754;12.990;2024-01-25T13:52:27;12.30;;;2.53;;
5416;SDS011;2731;50.754;12.990;2024-01-25T13:55:12;12.25;;;2.08;;
5416;SDS011;2731;50.754;12.990;2024-01-25T13:57:57;17.33;;;2.88;;
5416;SDS011;2731;50.754;12.990;2024-01-25T14:00:42;13.65;;;2.47;;
5416;SDS011;2731;50.754;12.990;2024-01-25T14:03:09;7.55;;;2.28;;
5416;SDS011;2731;50.754;12.990;2024-01-25T14:05:54;13.35;;;2.90;;
5416;SDS011;2731;50.754;12.990;2024-01-25T14:08:22;10.70;;;2.33;;
5416;SDS011;2731;50.754;12.990;2024-01-25T14:10:48;8.27;;;2.67;;
5416;SDS011;2731;50.754;12.990;2024-01-25T14:13:34;8.85;;;1.90;;
5416;SDS011;2731;50.754;12.990;2024-01-25T14:16:19;6.65;;;2.72;;
5416;SDS011;2731;50.754;12.990;2024-01-25T14:19:04;14.13;;;2.67;;
5416;SDS011;2731;50.754;12.990;2024-01-25T14:21:49;9.93;;;2.28;;
5416;SDS011;2731;50.754;12.990;2024-01-25T14:24:34;10.30;;;2.45;;
5416;SDS011;2731;50.754;12.990;2024-01-25T14:27:00;9.15;;;1.95;;
5416;SDS011;2731;50.754;12.990;2024-01-25T14:29:27;8.32;;;1.80;;
5416;SDS011;2731;50.754;12.990;2024-01-25T14:31:57;13.60;;;2.90;;
5416;SDS011;2731;50.754;12.990;2024-01-25T14:34:42;12.98;;;2.65;;
5416;SDS011;2731;50.754;12.990;2024-01-25T14:37:28;11.88;;;1.83;;
5416;SDS011;2731;50.754;12.990;2024-01-25T14:40:15;13.63;;;2.22;;
5416;SDS011;2731;50.754;12.990;2024-01-25T14:43:00;7.90;;;1.98;;
5416;SDS011;2731;50.754;12.990;2024-01-25T14:45:47;8.57;;;2.47;;
5416;SDS011;2731;50.754;12.990;2024-01-25T14:48:32;21.70;;;2.78;;
5416;SDS011;2731;50.754;12.990;2024-01-25T14:50:58;19.23;;;2.55;;
5416;SDS011;2731;50.754;12.990;2024-01-25T14:53:43;9.63;;;2.17;;
5416;SDS011;2731;50.754;12.990;2024-01-25T14:56:30;18.10;;;2.55;;
5416;SDS011;2731;50.754;12.990;2024-01-25T14:59:16;14.32;;;2.42;;
5416;SDS011;2731;50.754;12.990;2024-01-25T15:01:51;9.18;;;2.58;;
5416;SDS011;2731;50.754;12.990;2024-01-25T15:04:22;11.45;;;2.47;;
5416;SDS011;2731;50.754;12.990;2024-01-25T15:06:51;13.65;;;2.35;;
5416;SDS011;2731;50.754;12.990;2024-01-25T15:09:19;10.57;;;1.80;;
5416;SDS011;2731;50.754;12.990;2024-01-25T15:11:45;7.25;;;2.45;;
5416;SDS011;2731;50.754;12.990;2024-01-25T15:14:13;12.82;;;2.33;;
5416;SDS011;2731;50.754;12.990;2024-01-25T15:16:41;12.38;;;4.00;;
5416;SDS011;2731;50.754;12.990;2024-01-25T15:19:07;11.95;;;2.30;;
5416;SDS011;2731;50.754;12.990;2024-01-25T15:21:33;9.35;;;3.63;;
5416;SDS011;2731;50.754;12.990;2024-01-25T15:24:00;11.73;;;3.45;;
5416;SDS011;2731;50.754;12.990;2024-01-25T15:26:28;9.73;;;2.33;;
5416;SDS011;2731;50.754;12.990;2024-01-25T15:28:56;10.23;;;2.67;;
5416;SDS011;2731;50.754;12.990;2024-01-25T15:31:24;12.75;;;3.20;;
5416;SDS011;2731;50.754;12.990;2024-01-25T15:33:50;9.50;;;3.75;;
5416;SDS011;2731;50.754;12.990;2024-01-25T15:36:17;10.25;;;2.55;;
5416;SDS011;2731;50.754;12.990;2024-01-25T15:38:45;19.17;;;2.90;;
5416;SDS011;2731;50.754;12.990;2024-01-25T15:41:13;12.75;;;3.33;;
5416;SDS011;2731;50.754;12.990;2024-01-25T15:43:41;11.75;;;3.42;;
5416;SDS011;2731;50.754;12.990;2024-01-25T15:46:09;13.90;;;3.72;;
5416;SDS011;2731;50.754;12.990;2024-01-25T15:48:38;12.38;;;2.90;;
5416;SDS011;2731;50.754;12.990;2024-01-25T15:51:04;20.38;;;2.53;;
5416;SDS011;2731;50.754;12.990;2024-01-25T15:53:30;8.43;;;2.83;;
5416;SDS011;2731;50.754;12.990;2024-01-25T15:55:56;19.13;;;3.70;;
5416;SDS011;2731;50.754;12.990;2024-01-25T15:58:26;11.63;;;2.55;;
5416;SDS011;2731;50.754;12.990;2024-01-25T16:00:52;15.52;;;3.35;;
5416;SDS011;2731;50.754;12.990;2024-01-25T16:03:21;14.98;;;3.67;;
5416;SDS011;2731;50.754;12.990;2024-01-25T16:05:52;11.88;;;2.35;;
5416;SDS011;2731;50.754;12.990;2024-01-25T16:08:20;18.85;;;3.42;;